Time;durP1;ratioP1;P1;durP2;ratioP2;P2;SDS_P1;SDS_P2;PMS_P1;PMS_P2;Temp;Humidity;BMP_temperature;BMP_pressure;BME280_temperature;BME280_humidity;BME280_pressure;Samples;Min_cycle;Max_cycle;Signal;HPM_P1;HPM_P2
2023/12/29 00:01:03;;;;;;;25.08;17.02;;;;;;;;;;5012382;28;20025;-67
2023/12/29 00:03:29;;;;;;;20.83;16.45;;;;;;;;;;5012708;28;20030;-67
2023/12/29 00:05:55;;;;;;;23.10;16.70;;;;;;;;;;5012457;28;20021;-67
2023/12/29 00:08:21;;;;;;;22.75;16.55;;;;;;;;;;5012206;28;20479;-68
2023/12/29 00:10:47;;;;;;;20.60;15.82;;;;;;;;;;5012734;28;20022;-67
2023/12/29 00:13:13;;;;;;;19.58;15.55;;;;;;;;;;5012012;28;20460;-68
2023/12/29 00:15:39;;;;;;;17.92;15.52;;;;;;;;;;5010771;28;20427;-67
2023/12/29 00:18:05;;;;;;;18.60;16.35;;;;;;;;;;5011964;28;20029;-67
2023/12/29 00:20:31;;;;;;;19.58;15.70;;;;;;;;;;5012129;28;20038;-68
2023/12/29 00:22:58;;;;;;;20.77;16.58;;;;;;;;;;5012376;28;20026;-68
2023/12/29 00:25:24;;;;;;;21.42;16.38;;;;;;;;;;5011941;28;20025;-67
2023/12/29 00:27:50;;;;;;;21.70;16.05;;;;;;;;;;5012143;28;20408;-67
2023/12/29 00:30:35;;;;;;;21.42;16.60;;;;;;;;;;5012215;28;20130;-67
2023/12/29 00:33:01;;;;;;;22.40;15.82;;;;;;;;;;5012006;28;20036;-67
2023/12/29 00:35:27;;;;;;;20.15;15.45;;;;;;;;;;5011587;28;20082;-68
2023/12/29 00:37:52;;;;;;;22.02;16.80;;;;;;;;;;5011943;28;20034;-68
2023/12/29 00:40:18;;;;;;;21.42;16.75;;;;;;;;;;5011678;28;20048;-67
2023/12/29 00:42:44;;;;;;;19.10;16.50;;;;;;;;;;5010786;28;20036;-68
2023/12/29 00:45:10;;;;;;;19.58;16.38;;;;;;;;;;5011908;28;20045;-67
2023/12/29 00:47:36;;;;;;;19.55;15.23;;;;;;;;;;5011586;28;20037;-67
2023/12/29 00:50:02;;;;;;;18.05;15.50;;;;;;;;;;5011877;28;20125;-67
2023/12/29 00:52:28;;;;;;;20.65;15.77;;;;;;;;;;5011756;28;20030;-67
2023/12/29 00:54:54;;;;;;;23.23;15.88;;;;;;;;;;5011975;28;20022;-67
2023/12/29 00:57:20;;;;;;;22.42;16.17;;;;;;;;;;5010286;28;20081;-67
2023/12/29 00:59:47;;;;;;;21.52;16.90;;;;;;;;;;5011552;28;20387;-68
2023/12/29 01:02:13;;;;;;;23.30;16.55;;;;;;;;;;5010296;28;20372;-67
2023/12/29 01:04:39;;;;;;;22.30;16.95;;;;;;;;;;5011585;28;20026;-67
2023/12/29 01:07:05;;;;;;;23.90;18.13;;;;;;;;;;5011597;28;20029;-68
2023/12/29 01:09:31;;;;;;;21.70;16.98;;;;;;;;;;5011506;28;20105;-67
2023/12/29 01:11:57;;;;;;;23.10;18.70;;;;;;;;;;5010068;28;20018;-68
2023/12/29 01:14:23;;;;;;;26.30;19.85;;;;;;;;;;5011518;28;20026;-68
2023/12/29 01:16:49;;;;;;;24.13;18.60;;;;;;;;;;5011653;28;20033;-67
2023/12/29 01:19:15;;;;;;;24.33;18.90;;;;;;;;;;5010135;28;20184;-67
2023/12/29 01:21:41;;;;;;;27.98;19.60;;;;;;;;;;5011473;28;20037;-67
2023/12/29 01:24:07;;;;;;;27.48;19.80;;;;;;;;;;5011890;28;20041;-67
2023/12/29 01:26:39;;;;;;;25.77;20.33;;;;;;;;;;5011289;28;20029;-67
2023/12/29 01:29:06;;;;;;;28.77;21.17;;;;;;;;;;5011475;28;20050;-67
2023/12/29 01:31:32;;;;;;;26.15;21.35;;;;;;;;;;5010783;28;20037;-68
2023/12/29 01:33:58;;;;;;;28.92;21.75;;;;;;;;;;5011344;28;20052;-67
2023/12/29 01:36:24;;;;;;;29.27;21.75;;;;;;;;;;5011335;28;20480;-68
2023/12/29 01:38:50;;;;;;;29.45;21.70;;;;;;;;;;5011156;28;20068;-67
2023/12/29 01:41:16;;;;;;;34.65;22.05;;;;;;;;;;5011191;28;20065;-67
2023/12/29 01:43:57;;;;;;;29.77;23.15;;;;;;;;;;5011169;28;20492;-67
2023/12/29 01:46:25;;;;;;;29.45;21.00;;;;;;;;;;5011234;28;20088;-67
2023/12/29 01:48:51;;;;;;;30.83;22.02;;;;;;;;;;4996224;28;20034;-67
2023/12/29 01:51:18;;;;;;;28.75;23.35;;;;;;;;;;5011485;28;20026;-67
2023/12/29 01:53:44;;;;;;;27.58;21.88;;;;;;;;;;5014750;28;20061;-67
2023/12/29 01:56:10;;;;;;;28.52;22.17;;;;;;;;;;5012805;28;20057;-67
2023/12/29 01:58:37;;;;;;;28.45;22.80;;;;;;;;;;5014477;28;20034;-67
2023/12/29 02:01:03;;;;;;;29.92;23.15;;;;;;;;;;5014897;28;20030;-67
2023/12/29 02:03:30;;;;;;;28.92;22.75;;;;;;;;;;5013373;28;20025;-67
2023/12/29 02:05:56;;;;;;;27.15;21.52;;;;;;;;;;5014599;28;20200;-67
2023/12/29 02:08:25;;;;;;;31.42;23.48;;;;;;;;;;5014752;28;20392;-67
2023/12/29 02:10:51;;;;;;;31.48;22.67;;;;;;;;;;5014579;28;20036;-67
2023/12/29 02:13:17;;;;;;;27.60;21.73;;;;;;;;;;5014717;28;20025;-67
2023/12/29 02:15:44;;;;;;;25.83;20.40;;;;;;;;;;5014336;28;20443;-67
2023/12/29 02:18:14;;;;;;;26.85;20.75;;;;;;;;;;5014279;28;20041;-67
2023/12/29 02:20:41;;;;;;;29.67;20.77;;;;;;;;;;5014262;28;20506;-67
2023/12/29 02:23:07;;;;;;;29.67;21.90;;;;;;;;;;5014702;28;20029;-67
2023/12/29 02:25:33;;;;;;;30.73;21.25;;;;;;;;;;5014143;28;20022;-67
2023/12/29 02:28:15;;;;;;;26.40;21.02;;;;;;;;;;5013718;28;20030;-68
2023/12/29 02:33:46;;;;;;;27.42;21.98;;;;;;;;;;5003847;28;20123;-67
2023/12/29 02:36:13;;;;;;;28.05;22.67;;;;;;;;;;4998309;28;20492;-67
2023/12/29 02:38:39;;;;;;;25.52;20.65;;;;;;;;;;5010955;28;20133;-67
2023/12/29 02:41:05;;;;;;;26.55;20.58;;;;;;;;;;4997047;28;20038;-68
2023/12/29 02:43:34;;;;;;;24.58;20.90;;;;;;;;;;5011535;28;20041;-68
2023/12/29 02:46:00;;;;;;;28.35;20.90;;;;;;;;;;5011215;28;20454;-67
2023/12/29 02:48:26;;;;;;;27.10;21.35;;;;;;;;;;5011627;28;20037;-67
2023/12/29 02:50:52;;;;;;;30.20;22.98;;;;;;;;;;5011890;28;20030;-67
2023/12/29 02:53:18;;;;;;;29.50;23.42;;;;;;;;;;5020426;28;20037;-68
2023/12/29 02:55:44;;;;;;;30.15;23.60;;;;;;;;;;5014680;28;20032;-68
2023/12/29 02:58:10;;;;;;;28.45;23.35;;;;;;;;;;5012395;28;20046;-67
2023/12/29 03:00:36;;;;;;;33.88;23.08;;;;;;;;;;5020488;28;20083;-68
2023/12/29 03:03:02;;;;;;;27.08;22.33;;;;;;;;;;5025410;28;20034;-67
2023/12/29 03:05:46;;;;;;;30.10;23.35;;;;;;;;;;5025501;28;20033;-68
2023/12/29 03:08:12;;;;;;;29.10;23.17;;;;;;;;;;4999508;28;20084;-67
2023/12/29 03:10:38;;;;;;;28.85;23.63;;;;;;;;;;5010968;28;20030;-67
2023/12/29 03:13:40;;;;;;;34.03;23.45;;;;;;;;;;5013311;28;20516;-67
2023/12/29 03:16:06;;;;;;;30.55;23.75;;;;;;;;;;4994945;28;20027;-67
2023/12/29 03:18:32;;;;;;;29.40;23.48;;;;;;;;;;5007778;28;20129;-68
2023/12/29 03:20:58;;;;;;;32.97;24.45;;;;;;;;;;5013206;28;20033;-67
2023/12/29 03:23:24;;;;;;;26.10;23.15;;;;;;;;;;5013153;28;20025;-67
2023/12/29 03:25:50;;;;;;;31.38;23.08;;;;;;;;;;5012979;28;20025;-67
2023/12/29 03:28:16;;;;;;;30.33;23.23;;;;;;;;;;5012961;28;20105;-67
2023/12/29 03:30:42;;;;;;;27.60;22.08;;;;;;;;;;5011605;28;20036;-67
2023/12/29 03:33:08;;;;;;;30.35;22.80;;;;;;;;;;5012900;28;20400;-67
2023/12/29 03:35:34;;;;;;;26.33;22.05;;;;;;;;;;5012756;28;20053;-68
2023/12/29 03:38:00;;;;;;;26.08;22.75;;;;;;;;;;5012646;28;20401;-67
2023/12/29 03:40:26;;;;;;;26.85;21.52;;;;;;;;;;5012813;28;20116;-67
2023/12/29 03:42:52;;;;;;;26.83;21.95;;;;;;;;;;5012775;28;20113;-67
2023/12/29 03:45:18;;;;;;;29.27;21.52;;;;;;;;;;5012599;28;20361;-67
2023/12/29 03:47:44;;;;;;;28.33;20.35;;;;;;;;;;5012689;28;20026;-68
2023/12/29 03:50:10;;;;;;;25.60;21.15;;;;;;;;;;5012648;28;20018;-67
2023/12/29 03:58:47;;;;;;;24.40;20.85;;;;;;;;;;5000016;28;20104;-68
2023/12/29 04:01:13;;;;;;;25.77;18.50;;;;;;;;;;5026038;28;20056;-67
2023/12/29 04:03:40;;;;;;;25.33;18.27;;;;;;;;;;5012609;28;20022;-68
2023/12/29 04:06:06;;;;;;;23.67;19.38;;;;;;;;;;5012432;28;20098;-67
2023/12/29 04:08:32;;;;;;;22.10;19.17;;;;;;;;;;5010895;28;20117;-67
2023/12/29 04:10:58;;;;;;;24.67;18.92;;;;;;;;;;5012367;28;20480;-67
2023/12/29 04:13:24;;;;;;;20.50;18.27;;;;;;;;;;5012061;28;20160;-67
2023/12/29 04:15:50;;;;;;;23.33;18.95;;;;;;;;;;5012101;28;20476;-67
2023/12/29 04:18:16;;;;;;;26.98;18.75;;;;;;;;;;5012094;28;20503;-67
2023/12/29 04:20:42;;;;;;;23.20;18.63;;;;;;;;;;5025909;28;20075;-67
2023/12/29 04:23:09;;;;;;;25.08;19.48;;;;;;;;;;5012075;28;20037;-67
2023/12/29 04:25:35;;;;;;;25.33;18.60;;;;;;;;;;5012061;28;20061;-67
2023/12/29 04:28:01;;;;;;;24.77;19.42;;;;;;;;;;5012012;28;20058;-67
2023/12/29 04:30:27;;;;;;;23.65;19.08;;;;;;;;;;5010533;28;20427;-67
2023/12/29 04:32:53;;;;;;;25.52;20.58;;;;;;;;;;5011997;28;20029;-67
2023/12/29 04:35:19;;;;;;;30.60;20.88;;;;;;;;;;5010346;28;20137;-67
2023/12/29 04:37:45;;;;;;;26.27;21.75;;;;;;;;;;5011755;28;20034;-67
2023/12/29 04:40:12;;;;;;;24.85;21.08;;;;;;;;;;5011761;28;20420;-67
2023/12/29 04:42:38;;;;;;;27.38;21.13;;;;;;;;;;5010298;28;20014;-67
2023/12/29 04:45:05;;;;;;;27.60;20.13;;;;;;;;;;5011930;28;20070;-67
2023/12/29 04:47:31;;;;;;;24.55;21.33;;;;;;;;;;5010440;28;20039;-67
2023/12/29 04:49:57;;;;;;;25.38;20.63;;;;;;;;;;5011799;28;20029;-68
2023/12/29 04:52:23;;;;;;;31.10;21.88;;;;;;;;;;5011731;28;20030;-67
2023/12/29 04:54:49;;;;;;;28.70;21.50;;;;;;;;;;5012244;28;20030;-67
2023/12/29 04:57:15;;;;;;;25.08;19.23;;;;;;;;;;5011528;28;20552;-67
2023/12/29 04:59:41;;;;;;;25.13;19.40;;;;;;;;;;5011464;28;20037;-67
2023/12/29 05:02:07;;;;;;;27.38;19.95;;;;;;;;;;5011901;28;20112;-67
2023/12/29 05:04:33;;;;;;;21.60;17.98;;;;;;;;;;5011673;28;20026;-67
2023/12/29 05:06:59;;;;;;;24.10;18.00;;;;;;;;;;5011477;28;20034;-67
2023/12/29 05:09:25;;;;;;;22.42;18.83;;;;;;;;;;5011415;28;20026;-67
2023/12/29 05:11:51;;;;;;;24.02;17.70;;;;;;;;;;5017543;28;20040;-67
2023/12/29 05:14:17;;;;;;;22.55;17.75;;;;;;;;;;5019084;28;20026;-67
2023/12/29 05:16:43;;;;;;;27.17;18.60;;;;;;;;;;5011341;28;20566;-67
2023/12/29 05:19:21;;;;;;;20.48;17.98;;;;;;;;;;5017628;28;20040;-67
2023/12/29 05:21:50;;;;;;;24.17;17.70;;;;;;;;;;5017307;28;20100;-67
2023/12/29 05:24:17;;;;;;;20.20;16.92;;;;;;;;;;5011639;28;20384;-67
2023/12/29 05:26:42;;;;;;;21.17;18.13;;;;;;;;;;5012691;28;20375;-67
2023/12/29 05:29:09;;;;;;;22.80;17.45;;;;;;;;;;5013861;28;20108;-67
2023/12/29 05:31:34;;;;;;;22.13;18.80;;;;;;;;;;5015877;28;20050;-67
2023/12/29 05:34:00;;;;;;;24.70;18.85;;;;;;;;;;5014979;28;20038;-67
2023/12/29 05:36:26;;;;;;;24.73;18.00;;;;;;;;;;5013750;28;20539;-68
2023/12/29 05:38:52;;;;;;;22.00;18.63;;;;;;;;;;5015045;28;20104;-67
2023/12/29 05:41:19;;;;;;;23.63;19.90;;;;;;;;;;5013658;28;20457;-68
2023/12/29 05:43:45;;;;;;;25.25;19.15;;;;;;;;;;5014966;28;20148;-67
2023/12/29 05:46:12;;;;;;;25.02;19.02;;;;;;;;;;5015151;28;20025;-68
2023/12/29 05:48:38;;;;;;;23.08;19.27;;;;;;;;;;5014784;28;20166;-67
2023/12/29 05:51:11;;;;;;;26.58;20.13;;;;;;;;;;5014790;28;20026;-67
2023/12/29 05:53:40;;;;;;;23.42;18.27;;;;;;;;;;5013509;28;20030;-67
2023/12/29 05:56:06;;;;;;;22.85;17.80;;;;;;;;;;5014759;28;20026;-67
2023/12/29 05:58:32;;;;;;;24.85;17.92;;;;;;;;;;5014406;28;20042;-67
2023/12/29 06:01:00;;;;;;;20.23;17.15;;;;;;;;;;5014510;28;20441;-67
2023/12/29 06:03:26;;;;;;;22.63;16.98;;;;;;;;;;5014969;28;20368;-67
2023/12/29 06:05:52;;;;;;;20.13;16.23;;;;;;;;;;5014650;28;20459;-67
2023/12/29 06:08:18;;;;;;;18.55;16.00;;;;;;;;;;5014217;28;20018;-68
2023/12/29 06:10:44;;;;;;;17.63;15.65;;;;;;;;;;5014417;28;20313;-68
2023/12/29 06:13:10;;;;;;;17.10;14.90;;;;;;;;;;5014258;28;20021;-68
2023/12/29 06:15:36;;;;;;;17.58;15.45;;;;;;;;;;5013094;28;20029;-67
2023/12/29 06:18:03;;;;;;;19.85;14.00;;;;;;;;;;5014489;28;20079;-67
2023/12/29 06:20:29;;;;;;;22.27;15.82;;;;;;;;;;5014129;28;20037;-67
2023/12/29 06:22:56;;;;;;;19.75;15.38;;;;;;;;;;5014612;28;20124;-67
2023/12/29 06:25:22;;;;;;;18.02;15.48;;;;;;;;;;5005252;28;20026;-68
2023/12/29 06:27:48;;;;;;;19.88;14.07;;;;;;;;;;5014296;28;20061;-67
2023/12/29 06:30:14;;;;;;;19.23;15.10;;;;;;;;;;5014247;28;20058;-68
2023/12/29 06:32:41;;;;;;;20.30;14.60;;;;;;;;;;5012687;28;20084;-67
2023/12/29 06:35:09;;;;;;;17.80;14.02;;;;;;;;;;5013944;28;20053;-67
2023/12/29 06:37:36;;;;;;;19.73;15.25;;;;;;;;;;5013569;28;20487;-68
2023/12/29 06:40:03;;;;;;;21.20;14.90;;;;;;;;;;5013953;28;20203;-68
2023/12/29 06:42:29;;;;;;;18.42;14.43;;;;;;;;;;5013729;28;20109;-67
2023/12/29 06:44:58;;;;;;;17.95;14.13;;;;;;;;;;5013757;28;20038;-67
2023/12/29 06:47:24;;;;;;;18.70;14.65;;;;;;;;;;5013691;28;20119;-67
2023/12/29 06:49:50;;;;;;;19.15;14.70;;;;;;;;;;5012455;28;20038;-67
2023/12/29 06:52:16;;;;;;;16.65;13.90;;;;;;;;;;5012857;28;20372;-67
2023/12/29 06:54:43;;;;;;;18.08;13.63;;;;;;;;;;5012338;28;20022;-68
2023/12/29 06:57:09;;;;;;;17.55;14.07;;;;;;;;;;5013540;28;20358;-68
2023/12/29 06:59:35;;;;;;;17.48;13.30;;;;;;;;;;5012101;28;20484;-67
2023/12/29 07:02:01;;;;;;;17.08;13.02;;;;;;;;;;5013683;28;20428;-67
2023/12/29 07:04:27;;;;;;;17.27;13.65;;;;;;;;;;5013584;28;20428;-67
2023/12/29 07:06:53;;;;;;;17.63;13.77;;;;;;;;;;5013409;28;20060;-67
2023/12/29 07:09:19;;;;;;;17.27;13.30;;;;;;;;;;5013221;28;20064;-67
2023/12/29 07:11:49;;;;;;;20.40;13.88;;;;;;;;;;5013534;28;20022;-67
2023/12/29 07:14:15;;;;;;;18.38;14.95;;;;;;;;;;5013241;28;20030;-67
2023/12/29 07:16:41;;;;;;;16.73;13.88;;;;;;;;;;5009463;28;20456;-67
2023/12/29 07:19:07;;;;;;;22.38;15.45;;;;;;;;;;5009278;28;20391;-67
2023/12/29 07:21:34;;;;;;;19.00;15.25;;;;;;;;;;5009526;28;20028;-67
2023/12/29 07:27:04;;;;;;;23.75;15.20;;;;;;;;;;4998483;28;20085;-67
2023/12/29 07:29:30;;;;;;;21.48;14.48;;;;;;;;;;5018802;28;20033;-67
2023/12/29 07:31:56;;;;;;;21.50;14.93;;;;;;;;;;5024594;28;20021;-69
2023/12/29 07:34:22;;;;;;;18.58;13.75;;;;;;;;;;5028676;28;20056;-69
2023/12/29 07:36:48;;;;;;;17.52;15.23;;;;;;;;;;5012731;28;20045;-68
2023/12/29 07:39:14;;;;;;;20.38;15.20;;;;;;;;;;5014053;28;20037;-68
2023/12/29 07:41:43;;;;;;;19.30;14.90;;;;;;;;;;5032456;28;20037;-68
2023/12/29 07:44:12;;;;;;;18.42;13.85;;;;;;;;;;5030972;28;20456;-68
2023/12/29 07:46:41;;;;;;;18.33;13.00;;;;;;;;;;5019166;28;20021;-68
2023/12/29 07:49:07;;;;;;;16.05;13.50;;;;;;;;;;5031834;28;20102;-68
2023/12/29 07:51:33;;;;;;;17.67;13.43;;;;;;;;;;5013786;28;20053;-68
2023/12/29 07:54:00;;;;;;;19.00;13.95;;;;;;;;;;5011286;28;20342;-68
2023/12/29 07:56:25;;;;;;;18.85;14.27;;;;;;;;;;5014712;28;20068;-69
2023/12/29 07:58:51;;;;;;;19.85;13.73;;;;;;;;;;5022300;28;20448;-68
2023/12/29 08:01:18;;;;;;;16.73;13.02;;;;;;;;;;5026161;28;20033;-68
2023/12/29 08:03:44;;;;;;;16.48;12.98;;;;;;;;;;5012830;28;20040;-69
2023/12/29 08:06:12;;;;;;;16.30;13.10;;;;;;;;;;5011082;28;20464;-68
2023/12/29 08:08:38;;;;;;;16.15;12.88;;;;;;;;;;5012577;28;20056;-68
2023/12/29 08:11:04;;;;;;;19.13;13.57;;;;;;;;;;5012313;28;20030;-68
2023/12/29 08:13:30;;;;;;;18.70;12.65;;;;;;;;;;5012192;28;20026;-68
2023/12/29 08:15:56;;;;;;;17.33;12.02;;;;;;;;;;5012369;28;20109;-69
2023/12/29 08:18:22;;;;;;;15.25;11.25;;;;;;;;;;5024620;28;20044;-68
2023/12/29 08:20:48;;;;;;;16.65;12.00;;;;;;;;;;5012227;28;20013;-68
2023/12/29 08:23:14;;;;;;;20.42;13.45;;;;;;;;;;5012044;28;20388;-69
2023/12/29 08:25:41;;;;;;;18.10;13.95;;;;;;;;;;5012273;28;20379;-69
2023/12/29 08:28:07;;;;;;;21.73;16.02;;;;;;;;;;5012043;28;20025;-68
2023/12/29 08:30:37;;;;;;;28.15;18.00;;;;;;;;;;5014376;28;20484;-69
2023/12/29 08:33:03;;;;;;;22.65;18.77;;;;;;;;;;5031680;28;20018;-68
2023/12/29 08:35:29;;;;;;;25.13;19.42;;;;;;;;;;5029021;28;20065;-69
2023/12/29 08:37:55;;;;;;;24.98;18.67;;;;;;;;;;5012143;28;20030;-68
2023/12/29 08:40:21;;;;;;;24.45;18.58;;;;;;;;;;5010514;28;20391;-68
2023/12/29 08:42:47;;;;;;;26.33;19.25;;;;;;;;;;5010349;28;20100;-68
2023/12/29 08:48:17;;;;;;;22.00;17.98;;;;;;;;;;5000349;28;20470;-68
2023/12/29 08:50:43;;;;;;;23.30;18.05;;;;;;;;;;5011809;28;20029;-68
2023/12/29 08:53:10;;;;;;;25.65;19.10;;;;;;;;;;5011833;28;20140;-69
2023/12/29 08:55:35;;;;;;;25.48;18.58;;;;;;;;;;5011998;28;20030;-69
2023/12/29 08:58:02;;;;;;;24.77;19.20;;;;;;;;;;5011508;28;20052;-69
2023/12/29 09:00:30;;;;;;;28.20;19.88;;;;;;;;;;5010221;28;20391;-69
2023/12/29 09:02:56;;;;;;;21.30;18.92;;;;;;;;;;5013353;28;20022;-69
2023/12/29 09:05:22;;;;;;;24.73;18.92;;;;;;;;;;5015744;28;20036;-69
2023/12/29 09:07:48;;;;;;;20.58;17.70;;;;;;;;;;5015857;28;20029;-68
2023/12/29 09:10:14;;;;;;;29.23;18.95;;;;;;;;;;5014349;28;20080;-68
2023/12/29 09:12:40;;;;;;;23.95;19.48;;;;;;;;;;5015683;28;20033;-69
2023/12/29 09:15:07;;;;;;;23.67;18.60;;;;;;;;;;5010801;28;20021;-68
2023/12/29 09:17:33;;;;;;;24.38;17.88;;;;;;;;;;5006955;28;20448;-68
2023/12/29 09:19:59;;;;;;;21.73;17.67;;;;;;;;;;5015282;28;20108;-68
2023/12/29 09:22:25;;;;;;;20.83;17.17;;;;;;;;;;5015390;28;20451;-68
2023/12/29 09:24:51;;;;;;;23.95;17.83;;;;;;;;;;5015634;28;20125;-68
2023/12/29 09:27:17;;;;;;;24.38;17.33;;;;;;;;;;5015482;28;20024;-68
2023/12/29 09:29:43;;;;;;;22.92;17.65;;;;;;;;;;5015266;28;20033;-69
2023/12/29 09:32:09;;;;;;;24.40;17.85;;;;;;;;;;5030600;28;20063;-68
2023/12/29 09:34:35;;;;;;;23.30;17.45;;;;;;;;;;5026073;28;20073;-68
2023/12/29 09:37:01;;;;;;;24.70;18.33;;;;;;;;;;5013794;28;20045;-68
2023/12/29 09:39:28;;;;;;;28.42;19.13;;;;;;;;;;5015151;28;20084;-68
2023/12/29 09:41:55;;;;;;;22.75;18.50;;;;;;;;;;5015017;28;20147;-69
2023/12/29 09:44:21;;;;;;;23.38;19.67;;;;;;;;;;5015353;28;20052;-69
2023/12/29 09:46:53;;;;;;;23.20;18.88;;;;;;;;;;5013646;28;20026;-69
2023/12/29 09:49:19;;;;;;;29.45;21.13;;;;;;;;;;5014840;28;20022;-69
2023/12/29 09:51:45;;;;;;;26.95;18.95;;;;;;;;;;5014948;28;20026;-70
2023/12/29 09:54:13;;;;;;;23.50;18.77;;;;;;;;;;5014963;28;20034;-69
2023/12/29 09:56:39;;;;;;;27.33;19.65;;;;;;;;;;5013484;28;20029;-69
2023/12/29 09:59:06;;;;;;;24.38;19.30;;;;;;;;;;5014723;28;20456;-70
2023/12/29 10:01:33;;;;;;;26.98;17.83;;;;;;;;;;5014661;28;20127;-69
2023/12/29 10:03:59;;;;;;;23.05;16.77;;;;;;;;;;5014750;28;20025;-70
2023/12/29 10:06:26;;;;;;;22.98;18.63;;;;;;;;;;5014296;28;20044;-70
2023/12/29 10:08:52;;;;;;;25.92;18.40;;;;;;;;;;5010677;28;20088;-69
2023/12/29 10:11:24;;;;;;;26.25;19.85;;;;;;;;;;5010918;28;20052;-69
2023/12/29 10:13:53;;;;;;;27.02;19.70;;;;;;;;;;5014550;28;20329;-69
2023/12/29 10:16:25;;;;;;;21.95;18.27;;;;;;;;;;5014277;28;20113;-69
2023/12/29 10:22:03;;;;;;;26.83;18.65;;;;;;;;;;5010074;28;20510;-69
2023/12/29 10:24:30;;;;;;;23.02;19.92;;;;;;;;;;5013057;28;20575;-69
2023/12/29 10:26:56;;;;;;;28.50;18.50;;;;;;;;;;5014167;28;20029;-69
2023/12/29 10:29:23;;;;;;;25.77;19.17;;;;;;;;;;5014231;28;20029;-69
2023/12/29 10:31:49;;;;;;;20.10;17.90;;;;;;;;;;5027194;28;20362;-69
2023/12/29 10:34:29;;;;;;;22.33;17.67;;;;;;;;;;5015029;28;20468;-69
2023/12/29 10:36:59;;;;;;;25.88;19.65;;;;;;;;;;5014165;28;20109;-69
2023/12/29 10:39:25;;;;;;;22.00;18.10;;;;;;;;;;5013818;28;20125;-69
2023/12/29 10:42:08;;;;;;;22.08;16.90;;;;;;;;;;5013996;28;20484;-69
2023/12/29 10:44:35;;;;;;;20.35;15.75;;;;;;;;;;5013886;28;20033;-69
2023/12/29 10:47:10;;;;;;;20.35;16.58;;;;;;;;;;5014149;28;20105;-69
2023/12/29 10:49:36;;;;;;;17.85;15.10;;;;;;;;;;5013751;28;20032;-69
2023/12/29 10:52:13;;;;;;;21.30;15.02;;;;;;;;;;5013677;28;20096;-69
2023/12/29 10:55:06;;;;;;;18.73;16.08;;;;;;;;;;5013724;28;20032;-69
2023/12/29 10:57:34;;;;;;;17.02;14.48;;;;;;;;;;5013572;28;20022;-69
2023/12/29 11:00:00;;;;;;;18.90;15.63;;;;;;;;;;5013871;28;20340;-69
2023/12/29 11:02:27;;;;;;;19.17;15.75;;;;;;;;;;5013392;28;20388;-69
2023/12/29 11:05:02;;;;;;;19.73;15.35;;;;;;;;;;5013599;28;20080;-69
2023/12/29 11:07:31;;;;;;;19.75;16.40;;;;;;;;;;5013723;28;20022;-69
2023/12/29 11:10:01;;;;;;;20.00;15.52;;;;;;;;;;4999659;28;20030;-69
2023/12/29 11:12:27;;;;;;;17.10;14.88;;;;;;;;;;5011730;28;20341;-69
2023/12/29 11:14:53;;;;;;;21.67;15.80;;;;;;;;;;5013649;28;20037;-69
2023/12/29 11:17:20;;;;;;;20.55;16.65;;;;;;;;;;5013466;28;20022;-69
2023/12/29 11:19:49;;;;;;;24.08;16.38;;;;;;;;;;5013368;28;20034;-69
2023/12/29 11:22:17;;;;;;;17.90;14.93;;;;;;;;;;5013582;28;20384;-70
2023/12/29 11:24:43;;;;;;;19.45;15.50;;;;;;;;;;5000802;28;20511;-69
2023/12/29 11:27:11;;;;;;;21.60;15.82;;;;;;;;;;5013525;28;20057;-70
2023/12/29 11:29:38;;;;;;;21.00;15.13;;;;;;;;;;5013129;28;20025;-69
2023/12/29 11:32:05;;;;;;;19.60;15.38;;;;;;;;;;5027614;28;20056;-69
2023/12/29 11:34:39;;;;;;;18.45;15.00;;;;;;;;;;5025596;28;20049;-69
2023/12/29 11:37:20;;;;;;;20.20;14.65;;;;;;;;;;5012656;28;20144;-68
2023/12/29 11:39:46;;;;;;;19.15;15.27;;;;;;;;;;5010022;28;20045;-70
2023/12/29 11:42:20;;;;;;;16.55;14.50;;;;;;;;;;5010986;28;20026;-69
2023/12/29 11:44:48;;;;;;;20.02;15.48;;;;;;;;;;5009200;28;20021;-69
2023/12/29 11:47:32;;;;;;;18.38;14.38;;;;;;;;;;5041604;28;20417;-69
2023/12/29 11:50:02;;;;;;;21.50;14.13;;;;;;;;;;5012004;28;20060;-69
2023/12/29 11:52:41;;;;;;;18.85;15.20;;;;;;;;;;5012541;28;20030;-70
2023/12/29 11:55:08;;;;;;;20.10;15.15;;;;;;;;;;5012434;28;20541;-69
2023/12/29 11:57:36;;;;;;;19.15;14.95;;;;;;;;;;5012836;28;20029;-69
2023/12/29 12:00:03;;;;;;;21.33;15.27;;;;;;;;;;5012666;28;20018;-69
2023/12/29 12:02:31;;;;;;;17.27;15.45;;;;;;;;;;5011292;28;20022;-69
2023/12/29 12:04:57;;;;;;;20.83;15.70;;;;;;;;;;5012641;28;20032;-69
2023/12/29 12:07:23;;;;;;;17.73;14.73;;;;;;;;;;5012689;28;20045;-69
2023/12/29 12:09:49;;;;;;;17.95;16.05;;;;;;;;;;5012239;28;20018;-69
2023/12/29 12:12:35;;;;;;;17.92;14.70;;;;;;;;;;5012250;28;20479;-69
2023/12/29 12:15:02;;;;;;;21.70;15.43;;;;;;;;;;5012224;28;20086;-69
2023/12/29 12:17:35;;;;;;;19.23;16.20;;;;;;;;;;5012218;28;20029;-69
2023/12/29 12:20:10;;;;;;;21.05;16.40;;;;;;;;;;5010915;28;20359;-69
2023/12/29 12:22:40;;;;;;;19.92;16.95;;;;;;;;;;5010772;28;20026;-69
2023/12/29 12:25:06;;;;;;;22.70;17.38;;;;;;;;;;5012116;28;20034;-69
2023/12/29 12:27:33;;;;;;;22.80;18.50;;;;;;;;;;5012116;28;20030;-69
2023/12/29 12:29:59;;;;;;;24.63;18.13;;;;;;;;;;5011949;28;20455;-69
2023/12/29 12:32:29;;;;;;;20.65;16.25;;;;;;;;;;5010728;28;20053;-69
2023/12/29 12:38:22;;;;;;;27.35;19.90;;;;;;;;;;5000862;28;20057;-69
2023/12/29 12:40:48;;;;;;;23.77;18.85;;;;;;;;;;5010403;28;20029;-69
2023/12/29 12:43:15;;;;;;;23.67;19.58;;;;;;;;;;5002618;28;20085;-69
2023/12/29 12:45:42;;;;;;;25.92;20.08;;;;;;;;;;5010067;28;20491;-69
2023/12/29 12:48:20;;;;;;;27.58;20.85;;;;;;;;;;5012047;28;20029;-69
2023/12/29 12:50:47;;;;;;;25.23;21.08;;;;;;;;;;5012032;28;20022;-69
2023/12/29 12:53:20;;;;;;;25.15;20.38;;;;;;;;;;5011977;28;20129;-69
2023/12/29 12:55:50;;;;;;;24.75;21.25;;;;;;;;;;5011912;28;20053;-69
2023/12/29 12:58:17;;;;;;;31.80;22.90;;;;;;;;;;5011708;28;20480;-69
2023/12/29 13:00:43;;;;;;;28.50;23.10;;;;;;;;;;5010355;28;20048;-69
2023/12/29 13:03:09;;;;;;;32.53;24.15;;;;;;;;;;5010235;28;20022;-70
2023/12/29 13:05:37;;;;;;;28.58;23.02;;;;;;;;;;5011618;28;20064;-69
2023/12/29 13:08:03;;;;;;;27.30;22.73;;;;;;;;;;5011589;28;20022;-69
2023/12/29 13:10:30;;;;;;;27.20;22.90;;;;;;;;;;5011679;28;20022;-69
2023/12/29 13:12:56;;;;;;;30.15;22.35;;;;;;;;;;5011512;28;20029;-69
2023/12/29 13:15:23;;;;;;;30.50;22.50;;;;;;;;;;5010238;28;20030;-69
2023/12/29 13:17:55;;;;;;;27.73;22.52;;;;;;;;;;5011458;28;20030;-69
2023/12/29 13:20:21;;;;;;;27.88;22.40;;;;;;;;;;5011767;28;20033;-69
2023/12/29 13:22:48;;;;;;;26.80;21.85;;;;;;;;;;5011632;28;20030;-69
2023/12/29 13:25:18;;;;;;;24.30;18.67;;;;;;;;;;5011673;28;20018;-69
2023/12/29 13:27:44;;;;;;;25.85;19.75;;;;;;;;;;5011731;28;20543;-70
2023/12/29 13:30:12;;;;;;;22.73;18.45;;;;;;;;;;5010148;28;20026;-70
2023/12/29 13:32:38;;;;;;;22.23;19.45;;;;;;;;;;5010240;28;20041;-70
2023/12/29 13:35:24;;;;;;;28.20;19.55;;;;;;;;;;5011104;28;20129;-69
2023/12/29 13:38:03;;;;;;;26.20;19.15;;;;;;;;;;5011493;28;20384;-69
2023/12/29 13:40:35;;;;;;;26.70;21.13;;;;;;;;;;4998069;28;20030;-69
2023/12/29 13:43:06;;;;;;;25.02;19.65;;;;;;;;;;5011296;28;20022;-69
2023/12/29 13:45:32;;;;;;;24.95;19.85;;;;;;;;;;5011232;28;20542;-69
2023/12/29 13:47:59;;;;;;;26.13;19.98;;;;;;;;;;5012609;28;20029;-69
2023/12/29 13:50:26;;;;;;;29.77;20.38;;;;;;;;;;5014878;28;20309;-69
2023/12/29 13:52:52;;;;;;;27.95;21.60;;;;;;;;;;5015002;28;20030;-69
2023/12/29 13:55:22;;;;;;;23.52;19.63;;;;;;;;;;5015108;28;20022;-69
2023/12/29 13:57:48;;;;;;;23.55;19.17;;;;;;;;;;5014739;28;20052;-69
2023/12/29 14:00:16;;;;;;;23.00;18.65;;;;;;;;;;5014755;28;20125;-69
2023/12/29 14:02:45;;;;;;;20.08;17.65;;;;;;;;;;5018454;28;20104;-70
2023/12/29 14:05:17;;;;;;;25.15;19.60;;;;;;;;;;5022936;28;20096;-69
2023/12/29 14:07:45;;;;;;;26.30;19.95;;;;;;;;;;5019854;28;20302;-69
2023/12/29 14:10:11;;;;;;;26.38;19.85;;;;;;;;;;5028615;28;20041;-69
2023/12/29 14:12:37;;;;;;;26.23;20.77;;;;;;;;;;5000876;28;20026;-69
2023/12/29 14:15:04;;;;;;;24.27;19.33;;;;;;;;;;5014421;28;20142;-69
2023/12/29 14:17:31;;;;;;;23.70;19.50;;;;;;;;;;5016842;28;20079;-69
2023/12/29 14:20:03;;;;;;;26.52;19.52;;;;;;;;;;5034473;28;20052;-69
2023/12/29 14:22:29;;;;;;;22.60;19.92;;;;;;;;;;5015956;28;20088;-69
2023/12/29 14:25:03;;;;;;;25.95;20.05;;;;;;;;;;5014336;28;20476;-69
2023/12/29 14:27:30;;;;;;;20.50;18.00;;;;;;;;;;5014490;28;20495;-69
2023/12/29 14:29:56;;;;;;;25.42;21.45;;;;;;;;;;5014327;28;20030;-69
2023/12/29 14:32:22;;;;;;;25.17;20.15;;;;;;;;;;5014193;28;20109;-69
2023/12/29 14:34:53;;;;;;;26.50;20.88;;;;;;;;;;5018402;28;20128;-69
2023/12/29 14:37:22;;;;;;;26.25;22.23;;;;;;;;;;5021749;28;20490;-69
2023/12/29 14:39:49;;;;;;;27.77;22.92;;;;;;;;;;5014107;28;20041;-70